Time;durP1;ratioP1;P1;durP2;ratioP2;P2;SDS_P1;SDS_P2;PMS_P1;PMS_P2;Temp;Humidity;BMP_temperature;BMP_pressure;BME280_temperature;BME280_humidity;BME280_pressure;Samples;Min_cycle;Max_cycle;Signal;HPM_P1;HPM_P2
2021/04/16 00:00:18;;;;;;;4.10;2.30;;;;;;;;;;5049511;28;20028;-64
2021/04/16 00:02:44;;;;;;;6.78;2.78;;;;;;;;;;5049179;28;20033;-64
2021/04/16 00:05:10;;;;;;;6.70;2.47;;;;;;;;;;5049404;28;20048;-64
2021/04/16 00:07:35;;;;;;;4.05;2.13;;;;;;;;;;5049349;28;20032;-64
2021/04/16 00:10:00;;;;;;;5.47;2.50;;;;;;;;;;5049621;28;20079;-64
2021/04/16 00:12:26;;;;;;;3.95;2.38;;;;;;;;;;5049419;28;20473;-65
2021/04/16 00:14:51;;;;;;;5.22;2.08;;;;;;;;;;5048780;28;20107;-64
2021/04/16 00:17:16;;;;;;;5.95;2.13;;;;;;;;;;5049138;28;20481;-65
2021/04/16 00:19:41;;;;;;;5.30;2.85;;;;;;;;;;5049372;28;20039;-64
2021/04/16 00:22:07;;;;;;;5.28;2.47;;;;;;;;;;5049345;28;20042;-64
2021/04/16 00:24:32;;;;;;;6.13;2.30;;;;;;;;;;5048330;28;20044;-64
2021/04/16 00:26:57;;;;;;;9.20;2.65;;;;;;;;;;5049032;28;20084;-64
2021/04/16 00:29:23;;;;;;;5.15;2.60;;;;;;;;;;5049267;28;20017;-64
2021/04/16 00:31:51;;;;;;;6.75;2.50;;;;;;;;;;5048767;28;20443;-64
2021/04/16 00:34:17;;;;;;;7.05;2.70;;;;;;;;;;5048511;28;20033;-64
2021/04/16 00:36:43;;;;;;;10.82;2.35;;;;;;;;;;5048676;28;20558;-64
2021/04/16 00:39:08;;;;;;;5.97;2.13;;;;;;;;;;5047803;28;20049;-65
2021/04/16 00:41:33;;;;;;;8.70;2.80;;;;;;;;;;5048919;28;20036;-64
2021/04/16 00:43:58;;;;;;;5.95;2.63;;;;;;;;;;5049006;28;20013;-64
2021/04/16 00:46:24;;;;;;;7.30;3.22;;;;;;;;;;5047892;28;20049;-64
2021/04/16 00:48:52;;;;;;;9.30;2.42;;;;;;;;;;5048722;28;20678;-64
2021/04/16 00:51:21;;;;;;;7.80;2.45;;;;;;;;;;5048941;28;20032;-64
2021/04/16 00:53:46;;;;;;;5.07;2.55;;;;;;;;;;5048441;28;20055;-64
2021/04/16 00:56:12;;;;;;;5.57;2.38;;;;;;;;;;5047551;28;20473;-64
2021/04/16 00:58:37;;;;;;;8.30;2.83;;;;;;;;;;5048628;28;20021;-64
2021/04/16 01:01:03;;;;;;;8.27;2.72;;;;;;;;;;5048123;28;20060;-64
2021/04/16 01:03:28;;;;;;;7.40;2.40;;;;;;;;;;5048501;28;20029;-64
2021/04/16 01:05:54;;;;;;;7.65;2.33;;;;;;;;;;5048095;28;20025;-64
2021/04/16 01:08:20;;;;;;;6.35;2.30;;;;;;;;;;5046527;28;20021;-64
2021/04/16 01:10:45;;;;;;;8.43;2.30;;;;;;;;;;5046879;28;20037;-64
2021/04/16 01:13:10;;;;;;;14.90;3.75;;;;;;;;;;5047891;28;20032;-65
2021/04/16 01:15:39;;;;;;;6.85;2.95;;;;;;;;;;5047502;28;20086;-64
2021/04/16 01:18:13;;;;;;;10.05;2.95;;;;;;;;;;5048031;28;20120;-64
2021/04/16 01:20:40;;;;;;;8.90;2.70;;;;;;;;;;5048218;28;20058;-64
2021/04/16 01:23:08;;;;;;;6.25;2.20;;;;;;;;;;5047638;28;20036;-63
2021/04/16 01:25:33;;;;;;;7.57;2.05;;;;;;;;;;5047830;28;20025;-64
2021/04/16 01:27:59;;;;;;;4.82;2.22;;;;;;;;;;5047700;28;20079;-64
2021/04/16 01:30:26;;;;;;;7.63;2.08;;;;;;;;;;5048094;28;20045;-64
2021/04/16 01:32:52;;;;;;;5.88;2.30;;;;;;;;;;5047230;28;20025;-64
2021/04/16 01:35:22;;;;;;;7.97;2.45;;;;;;;;;;5047845;28;20059;-64
2021/04/16 01:37:47;;;;;;;4.85;2.10;;;;;;;;;;5047647;28;20068;-64
2021/04/16 01:40:13;;;;;;;9.93;2.23;;;;;;;;;;5047667;28;20076;-65
2021/04/16 01:42:39;;;;;;;7.03;2.30;;;;;;;;;;5048040;28;20037;-64
2021/04/16 01:45:05;;;;;;;7.28;2.47;;;;;;;;;;5047318;28;20417;-64
2021/04/16 01:47:31;;;;;;;5.05;2.55;;;;;;;;;;5047984;28;20078;-64
2021/04/16 01:49:56;;;;;;;7.90;2.60;;;;;;;;;;5047633;28;20028;-63
2021/04/16 01:52:26;;;;;;;8.43;2.25;;;;;;;;;;5047633;28;20061;-64
2021/04/16 01:54:51;;;;;;;7.90;2.60;;;;;;;;;;5047333;28;20469;-64
2021/04/16 01:57:29;;;;;;;6.43;2.03;;;;;;;;;;5047437;28;20040;-64
2021/04/16 01:59:54;;;;;;;13.30;2.45;;;;;;;;;;5046679;28;20029;-64
2021/04/16 02:02:22;;;;;;;3.95;2.13;;;;;;;;;;5047308;28;20451;-64
2021/04/16 02:04:47;;;;;;;4.93;2.40;;;;;;;;;;5047196;28;20047;-65
2021/04/16 02:07:13;;;;;;;6.97;2.43;;;;;;;;;;5046021;28;20037;-64
2021/04/16 02:09:39;;;;;;;6.93;2.40;;;;;;;;;;5051478;28;20033;-64
2021/04/16 02:12:05;;;;;;;7.00;2.42;;;;;;;;;;5051493;28;20029;-65
2021/04/16 02:14:31;;;;;;;6.97;2.53;;;;;;;;;;5051235;28;20025;-64
2021/04/16 02:16:58;;;;;;;6.05;2.28;;;;;;;;;;5051552;28;20437;-64
2021/04/16 02:19:24;;;;;;;5.53;2.55;;;;;;;;;;5051515;28;20052;-64
2021/04/16 02:21:49;;;;;;;6.77;2.60;;;;;;;;;;5050513;28;20021;-65
2021/04/16 02:24:15;;;;;;;4.80;2.43;;;;;;;;;;5051532;28;20046;-64
2021/04/16 02:26:40;;;;;;;4.93;2.20;;;;;;;;;;5051264;28;20152;-64
2021/04/16 02:29:06;;;;;;;11.43;2.55;;;;;;;;;;5050844;28;20120;-64
2021/04/16 02:31:32;;;;;;;10.45;2.30;;;;;;;;;;5050876;28;20381;-64
2021/04/16 02:33:57;;;;;;;7.25;2.80;;;;;;;;;;5051341;28;20041;-64
2021/04/16 02:36:24;;;;;;;10.32;2.70;;;;;;;;;;5050999;28;20024;-64
2021/04/16 02:38:50;;;;;;;7.88;2.28;;;;;;;;;;5050966;28;20068;-63
2021/04/16 02:41:16;;;;;;;5.53;2.40;;;;;;;;;;5051276;28;20084;-63
2021/04/16 02:43:41;;;;;;;7.30;2.90;;;;;;;;;;5050390;28;20053;-64
2021/04/16 02:46:06;;;;;;;7.15;2.92;;;;;;;;;;5050859;28;20405;-64
2021/04/16 02:48:31;;;;;;;7.37;2.53;;;;;;;;;;5051180;28;20086;-64
2021/04/16 02:50:57;;;;;;;10.70;3.30;;;;;;;;;;5050613;28;20523;-64
2021/04/16 02:53:22;;;;;;;6.17;2.50;;;;;;;;;;5050850;28;20037;-64
2021/04/16 02:55:47;;;;;;;9.63;2.88;;;;;;;;;;5050442;28;20049;-64
2021/04/16 02:58:12;;;;;;;10.48;2.97;;;;;;;;;;5050846;28;20017;-64
2021/04/16 03:00:38;;;;;;;8.27;2.60;;;;;;;;;;5050539;28;20025;-64
2021/04/16 03:03:03;;;;;;;8.00;2.87;;;;;;;;;;5050494;28;20037;-64
2021/04/16 03:05:29;;;;;;;9.00;3.03;;;;;;;;;;5049660;28;20029;-64
2021/04/16 03:07:55;;;;;;;7.20;2.40;;;;;;;;;;5050852;28;20040;-64
2021/04/16 03:10:22;;;;;;;10.87;3.20;;;;;;;;;;5050709;28;20033;-64
2021/04/16 03:12:48;;;;;;;5.07;2.63;;;;;;;;;;5048774;28;20040;-64
2021/04/16 03:15:13;;;;;;;8.55;2.80;;;;;;;;;;5049786;28;20029;-64
2021/04/16 03:17:38;;;;;;;7.33;2.67;;;;;;;;;;5050689;28;20470;-63
2021/04/16 03:20:05;;;;;;;6.80;2.47;;;;;;;;;;5049486;28;20111;-64
2021/04/16 03:22:30;;;;;;;9.10;3.30;;;;;;;;;;5050727;28;20025;-64
2021/04/16 03:24:56;;;;;;;11.70;2.63;;;;;;;;;;5049411;28;20044;-64
2021/04/16 03:27:21;;;;;;;6.50;2.50;;;;;;;;;;5049273;28;20035;-64
2021/04/16 03:29:46;;;;;;;5.67;2.57;;;;;;;;;;5050225;28;20041;-64
2021/04/16 03:32:11;;;;;;;13.00;2.70;;;;;;;;;;5050345;28;20513;-64
2021/04/16 03:34:37;;;;;;;14.27;3.00;;;;;;;;;;5050159;28;20021;-64
2021/04/16 03:37:02;;;;;;;6.23;2.70;;;;;;;;;;5049012;28;20098;-63
2021/04/16 03:39:27;;;;;;;6.90;2.87;;;;;;;;;;5050103;28;20056;-63
2021/04/16 03:41:53;;;;;;;4.70;2.50;;;;;;;;;;5050088;28;20024;-64
2021/04/16 03:44:18;;;;;;;6.87;2.67;;;;;;;;;;5050018;28;20112;-64
2021/04/16 03:46:43;;;;;;;7.30;2.80;;;;;;;;;;5048762;28;20037;-64
2021/04/16 03:49:09;;;;;;;9.33;3.03;;;;;;;;;;5049960;28;20462;-64
2021/04/16 03:52:04;;;;;;;6.47;2.70;;;;;;;;;;5049510;28;20108;-64
2021/04/16 03:54:29;;;;;;;10.33;2.80;;;;;;;;;;5036282;28;20126;-64
2021/04/16 03:56:54;;;;;;;8.13;2.60;;;;;;;;;;5048898;28;20433;-64
2021/04/16 03:59:21;;;;;;;7.93;2.50;;;;;;;;;;5049796;28;20041;-64
2021/04/16 04:01:46;;;;;;;6.33;2.97;;;;;;;;;;5049630;28;20051;-64
2021/04/16 04:04:12;;;;;;;7.03;2.93;;;;;;;;;;5049722;28;20021;-64
2021/04/16 04:06:37;;;;;;;11.17;2.80;;;;;;;;;;5049259;28;20112;-64
2021/04/16 04:09:05;;;;;;;6.50;2.90;;;;;;;;;;5048998;28;20017;-64
2021/04/16 04:11:31;;;;;;;8.43;3.23;;;;;;;;;;5049516;28;20051;-63
2021/04/16 04:13:57;;;;;;;10.93;3.80;;;;;;;;;;5049236;28;20059;-64
2021/04/16 04:16:22;;;;;;;6.83;2.67;;;;;;;;;;5049338;28;20029;-64
2021/04/16 04:18:48;;;;;;;5.83;2.70;;;;;;;;;;5048950;28;20029;-64
2021/04/16 04:21:13;;;;;;;10.07;3.10;;;;;;;;;;5049210;28;20041;-64
2021/04/16 04:23:38;;;;;;;6.67;2.73;;;;;;;;;;5049140;28;20017;-64
2021/04/16 04:26:04;;;;;;;9.73;2.90;;;;;;;;;;5049326;28;20108;-64
2021/04/16 04:28:29;;;;;;;6.93;2.80;;;;;;;;;;5048746;28;20435;-64
2021/04/16 04:30:55;;;;;;;7.40;3.13;;;;;;;;;;5048206;28;20032;-64
2021/04/16 04:33:20;;;;;;;11.07;2.80;;;;;;;;;;5048667;28;20029;-64
2021/04/16 04:35:45;;;;;;;7.77;2.50;;;;;;;;;;5048847;28;20115;-63
2021/04/16 04:38:11;;;;;;;7.90;2.73;;;;;;;;;;5049223;28;20123;-64
2021/04/16 04:40:36;;;;;;;11.63;3.27;;;;;;;;;;5048040;28;20041;-64
2021/04/16 04:43:02;;;;;;;5.33;2.60;;;;;;;;;;5048515;28;20086;-64
2021/04/16 04:45:27;;;;;;;8.03;2.70;;;;;;;;;;5048740;28;20560;-64
2021/04/16 04:47:53;;;;;;;6.47;2.90;;;;;;;;;;5048874;28;20822;-64
2021/04/16 04:50:19;;;;;;;7.53;3.03;;;;;;;;;;5048181;28;20044;-64
2021/04/16 04:52:44;;;;;;;7.90;2.60;;;;;;;;;;5048788;28;20021;-64
2021/04/16 04:55:12;;;;;;;9.30;2.80;;;;;;;;;;5048407;28;20036;-64
2021/04/16 04:57:37;;;;;;;8.97;2.80;;;;;;;;;;5048015;28;20553;-64
2021/04/16 05:00:03;;;;;;;8.47;2.80;;;;;;;;;;5048831;28;20096;-64
2021/04/16 05:02:29;;;;;;;5.73;2.97;;;;;;;;;;5048169;28;20099;-65
2021/04/16 05:04:54;;;;;;;7.63;3.30;;;;;;;;;;5047923;28;20502;-63
2021/04/16 05:07:19;;;;;;;11.70;3.30;;;;;;;;;;5048572;28;20052;-64
2021/04/16 05:09:44;;;;;;;10.47;3.27;;;;;;;;;;5048287;28;20060;-64
2021/04/16 05:12:11;;;;;;;10.53;3.43;;;;;;;;;;5047725;28;20041;-64
2021/04/16 05:14:36;;;;;;;7.80;3.20;;;;;;;;;;5048204;28;20047;-63
2021/04/16 05:17:02;;;;;;;6.53;2.83;;;;;;;;;;5048140;28;20460;-63
2021/04/16 05:19:27;;;;;;;8.07;3.53;;;;;;;;;;5048125;28;20048;-64
2021/04/16 05:21:56;;;;;;;7.27;2.87;;;;;;;;;;5048092;28;20025;-63
2021/04/16 05:24:21;;;;;;;10.47;2.87;;;;;;;;;;5046828;28;20396;-64
2021/04/16 05:26:47;;;;;;;6.83;3.10;;;;;;;;;;5047626;28;20036;-64
2021/04/16 05:29:12;;;;;;;10.47;3.43;;;;;;;;;;5048141;28;20024;-64
2021/04/16 05:31:37;;;;;;;11.00;2.83;;;;;;;;;;5048132;28;20029;-63
2021/04/16 05:34:03;;;;;;;7.37;3.37;;;;;;;;;;5047055;28;20115;-64
2021/04/16 05:36:29;;;;;;;10.90;3.37;;;;;;;;;;5047923;28;20029;-64
2021/04/16 05:38:54;;;;;;;5.17;2.47;;;;;;;;;;5047538;28;20059;-63
2021/04/16 05:41:20;;;;;;;9.73;3.37;;;;;;;;;;5047710;28;20048;-64
2021/04/16 05:43:46;;;;;;;13.50;3.17;;;;;;;;;;5047172;28;20029;-64
2021/04/16 05:46:12;;;;;;;10.40;3.97;;;;;;;;;;5047912;28;20029;-63
2021/04/16 05:48:37;;;;;;;9.33;3.00;;;;;;;;;;5047724;28;20478;-64
2021/04/16 05:51:02;;;;;;;10.37;3.23;;;;;;;;;;5047436;28;20428;-63
2021/04/16 05:53:28;;;;;;;9.57;2.93;;;;;;;;;;5047699;28;20090;-64
2021/04/16 05:55:53;;;;;;;8.77;2.50;;;;;;;;;;5046319;28;20563;-64
2021/04/16 05:58:19;;;;;;;4.18;2.20;;;;;;;;;;5048261;28;20067;-64
2021/04/16 06:00:44;;;;;;;4.10;2.28;;;;;;;;;;5047479;28;20037;-64
2021/04/16 06:03:10;;;;;;;5.40;2.58;;;;;;;;;;5047419;28;20033;-64
2021/04/16 06:05:35;;;;;;;7.25;2.55;;;;;;;;;;5046557;28;20466;-64
2021/04/16 06:08:01;;;;;;;6.50;1.80;;;;;;;;;;5047788;28;20025;-65
2021/04/16 06:10:27;;;;;;;5.85;2.35;;;;;;;;;;5047478;28;20043;-65
2021/04/16 06:12:52;;;;;;;14.82;2.25;;;;;;;;;;5047703;28;20432;-65
2021/04/16 06:15:19;;;;;;;43.67;3.80;;;;;;;;;;5047133;28;20033;-63
2021/04/16 06:17:44;;;;;;;46.58;3.50;;;;;;;;;;5047178;28;20048;-63
2021/04/16 06:20:11;;;;;;;108.95;7.15;;;;;;;;;;5047847;28;20017;-63
2021/04/16 06:22:36;;;;;;;8.90;1.80;;;;;;;;;;5047683;28;20025;-64
2021/04/16 06:25:03;;;;;;;13.18;2.35;;;;;;;;;;5046689;28;20040;-63
2021/04/16 06:27:28;;;;;;;4.78;1.77;;;;;;;;;;5047380;28;20052;-63
2021/04/16 06:29:53;;;;;;;4.47;1.60;;;;;;;;;;5047575;28;20021;-63
2021/04/16 06:32:19;;;;;;;3.90;1.80;;;;;;;;;;5046921;28;20421;-63
2021/04/16 06:34:45;;;;;;;2.97;1.60;;;;;;;;;;5047020;28;20021;-64
2021/04/16 06:37:10;;;;;;;3.60;1.83;;;;;;;;;;5046870;28;20131;-64
2021/04/16 06:39:35;;;;;;;2.50;1.50;;;;;;;;;;5047480;28;20413;-63
2021/04/16 06:42:02;;;;;;;4.03;1.88;;;;;;;;;;5047170;28;20021;-64
2021/04/16 06:44:28;;;;;;;6.72;2.30;;;;;;;;;;5047267;28;20057;-63
2021/04/16 06:47:01;;;;;;;4.05;2.35;;;;;;;;;;5047218;28;20037;-64
2021/04/16 06:49:27;;;;;;;3.60;2.00;;;;;;;;;;5046880;28;20021;-64
2021/04/16 06:52:08;;;;;;;5.30;1.88;;;;;;;;;;5047638;28;20028;-64
2021/04/16 06:54:47;;;;;;;5.03;2.22;;;;;;;;;;5047291;28;20123;-64
2021/04/16 06:57:28;;;;;;;6.55;2.22;;;;;;;;;;5050864;28;20040;-64
2021/04/16 07:00:22;;;;;;;6.85;1.83;;;;;;;;;;5050566;28;20037;-64
2021/04/16 07:02:59;;;;;;;5.82;2.08;;;;;;;;;;5036512;28;20083;-64
2021/04/16 07:05:27;;;;;;;4.13;2.42;;;;;;;;;;5050370;28;20060;-65
2021/04/16 07:07:52;;;;;;;3.67;2.00;;;;;;;;;;5050756;28;20032;-65
2021/04/16 07:10:21;;;;;;;3.65;1.70;;;;;;;;;;5049749;28;20041;-64
2021/04/16 07:12:47;;;;;;;5.95;2.00;;;;;;;;;;5050392;28;20052;-64
2021/04/16 07:15:17;;;;;;;7.90;2.00;;;;;;;;;;5050368;28;20041;-65
2021/04/16 07:17:43;;;;;;;4.30;1.90;;;;;;;;;;5049521;28;20048;-64
2021/04/16 07:20:10;;;;;;;5.53;2.20;;;;;;;;;;5050151;28;20090;-64
2021/04/16 07:22:45;;;;;;;7.53;2.30;;;;;;;;;;5050329;28;20052;-65
2021/04/16 07:25:31;;;;;;;8.70;2.05;;;;;;;;;;5043793;28;20043;-65
2021/04/16 07:27:58;;;;;;;4.28;2.13;;;;;;;;;;5026459;28;20489;-66
2021/04/16 07:30:56;;;;;;;4.30;2.00;;;;;;;;;;5050034;28;20033;-65
2021/04/16 07:33:37;;;;;;;7.78;2.20;;;;;;;;;;5009770;28;20176;-65
2021/04/16 07:36:32;;;;;;;7.68;2.10;;;;;;;;;;5034374;28;20485;-65
2021/04/16 07:38:59;;;;;;;4.82;2.22;;;;;;;;;;5036205;28;20079;-65
2021/04/16 07:41:27;;;;;;;3.67;2.30;;;;;;;;;;5049664;28;20060;-65
2021/04/16 07:43:53;;;;;;;4.82;2.40;;;;;;;;;;5049901;28;20570;-65
2021/04/16 07:46:27;;;;;;;7.03;1.95;;;;;;;;;;5049919;28;20037;-65
2021/04/16 07:49:13;;;;;;;6.55;2.40;;;;;;;;;;5044262;28;20037;-65
2021/04/16 07:51:39;;;;;;;6.47;2.80;;;;;;;;;;5044927;28;20048;-65
2021/04/16 07:54:16;;;;;;;4.72;2.35;;;;;;;;;;5037348;28;20406;-65
2021/04/16 07:56:42;;;;;;;5.10;2.20;;;;;;;;;;5040842;28;20422;-65
2021/04/16 07:59:14;;;;;;;7.32;4.13;;;;;;;;;;5046924;28;20045;-66
2021/04/16 08:01:44;;;;;;;7.82;2.10;;;;;;;;;;5046436;28;20373;-65
2021/04/16 08:04:09;;;;;;;4.38;1.83;;;;;;;;;;5046884;28;20039;-65
2021/04/16 08:06:39;;;;;;;5.57;1.67;;;;;;;;;;5046625;28;20036;-65
2021/04/16 08:09:08;;;;;;;3.80;1.60;;;;;;;;;;5046231;28;20083;-66
2021/04/16 08:11:34;;;;;;;3.70;1.80;;;;;;;;;;5047092;28;20048;-66
2021/04/16 08:14:05;;;;;;;6.55;1.92;;;;;;;;;;5046525;28;20044;-65
2021/04/16 08:16:32;;;;;;;5.38;1.80;;;;;;;;;;5046980;28;20035;-65
2021/04/16 08:19:00;;;;;;;5.68;1.92;;;;;;;;;;5046976;28;20063;-65
2021/04/16 08:21:26;;;;;;;4.00;1.70;;;;;;;;;;5030474;28;20029;-65
2021/04/16 08:24:06;;;;;;;3.67;1.80;;;;;;;;;;5045391;28;20094;-65
2021/04/16 08:26:35;;;;;;;4.93;1.92;;;;;;;;;;5046445;28;20072;-65
2021/04/16 08:29:06;;;;;;;5.20;1.80;;;;;;;;;;5046097;28;20126;-65
2021/04/16 08:31:41;;;;;;;4.07;1.65;;;;;;;;;;5031236;28;20021;-65
2021/04/16 08:34:08;;;;;;;4.45;1.98;;;;;;;;;;5042932;28;20812;-65
2021/04/16 08:36:39;;;;;;;5.63;1.95;;;;;;;;;;5042687;28;20032;-66
2021/04/16 08:39:18;;;;;;;5.03;1.85;;;;;;;;;;5042594;28;20084;-66
2021/04/16 08:42:05;;;;;;;5.40;2.40;;;;;;;;;;5041451;28;20071;-66
2021/04/16 08:44:32;;;;;;;4.20;2.00;;;;;;;;;;5042557;28;20037;-65
2021/04/16 08:46:58;;;;;;;5.80;2.08;;;;;;;;;;5041966;28;20075;-65
2021/04/16 08:49:29;;;;;;;5.15;1.88;;;;;;;;;;5042567;28;20033;-65
2021/04/16 08:51:59;;;;;;;4.55;1.83;;;;;;;;;;5043167;28;20525;-65
2021/04/16 08:54:33;;;;;;;4.95;2.00;;;;;;;;;;5043015;28;20057;-65
2021/04/16 08:57:00;;;;;;;4.22;1.50;;;;;;;;;;5041965;28;20116;-65
2021/04/16 08:59:27;;;;;;;4.10;1.60;;;;;;;;;;5041230;28;20025;-65
2021/04/16 09:01:55;;;;;;;6.88;2.17;;;;;;;;;;5040886;28;20439;-65
2021/04/16 09:04:37;;;;;;;4.93;1.70;;;;;;;;;;5021278;28;20576;-65
2021/04/16 09:07:02;;;;;;;3.15;1.50;;;;;;;;;;5021554;28;20074;-65
2021/04/16 09:10:02;;;;;;;2.90;1.48;;;;;;;;;;5027568;28;20029;-65
2021/04/16 09:12:36;;;;;;;3.53;1.70;;;;;;;;;;5007929;28;20047;-65
2021/04/16 09:15:01;;;;;;;4.35;1.30;;;;;;;;;;5042369;28;20037;-65
2021/04/16 09:17:47;;;;;;;4.38;1.70;;;;;;;;;;5040951;28;20040;-65
2021/04/16 09:20:12;;;;;;;5.43;1.70;;;;;;;;;;5041067;28;20033;-66
2021/04/16 09:22:42;;;;;;;5.10;1.70;;;;;;;;;;5040686;28;20025;-65
2021/04/16 09:25:27;;;;;;;5.47;1.48;;;;;;;;;;5042000;28;20041;-66
2021/04/16 09:27:52;;;;;;;4.15;1.70;;;;;;;;;;5040167;28;20040;-65
2021/04/16 09:30:17;;;;;;;5.90;1.98;;;;;;;;;;5040957;28;20079;-65
2021/04/16 09:32:52;;;;;;;3.67;1.67;;;;;;;;;;5036618;28;20362;-65
2021/04/16 09:35:17;;;;;;;;;;;;;;;;;;5042489;28;20040;-65
2021/04/16 09:37:45;;;;;;;4.60;1.98;;;;;;;;;;5040932;28;19915;-65
2021/04/16 09:40:26;;;;;;;4.93;1.40;;;;;;;;;;5040838;28;20061;-65
2021/04/16 09:42:57;;;;;;;4.60;1.65;;;;;;;;;;5040931;28;20766;-65
2021/04/16 09:45:28;;;;;;;2.47;1.38;;;;;;;;;;5040875;28;20079;-65
2021/04/16 09:47:55;;;;;;;3.47;1.77;;;;;;;;;;5041989;28;20075;-65
2021/04/16 09:50:23;;;;;;;3.08;1.77;;;;;;;;;;5040507;28;20064;-65
2021/04/16 09:52:50;;;;;;;1.75;1.20;;;;;;;;;;5040830;28;20040;-65
2021/04/16 09:55:34;;;;;;;3.10;1.48;;;;;;;;;;5041550;28;20087;-65
2021/04/16 09:57:59;;;;;;;3.83;1.80;;;;;;;;;;5041434;28;20487;-65
2021/04/16 10:00:36;;;;;;;3.25;1.67;;;;;;;;;;5040352;28;20107;-65
2021/04/16 10:03:20;;;;;;;8.30;1.80;;;;;;;;;;5041008;28;20068;-65
2021/04/16 10:05:46;;;;;;;3.75;1.80;;;;;;;;;;5031144;28;20071;-65
2021/04/16 10:08:18;;;;;;;5.82;2.22;;;;;;;;;;5041489;28;20033;-65
2021/04/16 10:10:43;;;;;;;4.15;1.80;;;;;;;;;;5039842;28;20614;-65
2021/04/16 10:13:32;;;;;;;6.65;2.33;;;;;;;;;;5049553;28;20069;-65
2021/04/16 10:15:58;;;;;;;5.63;2.05;;;;;;;;;;5034836;28;20139;-65
2021/04/16 10:18:29;;;;;;;4.78;2.40;;;;;;;;;;5051041;28;20032;-65
2021/04/16 10:21:09;;;;;;;5.38;2.28;;;;;;;;;;5044068;28;20033;-65
2021/04/16 10:23:39;;;;;;;5.88;2.13;;;;;;;;;;5041450;28;20063;-65
2021/04/16 10:49:56;;;;;;;5.90;1.73;;;;;;;;;;5044457;28;20055;-66
2021/04/16 12:39:49;;;;;;;1.90;1.27;;;;;;;;;;5045018;28;20132;-65
2021/04/16 12:42:15;;;;;;;2.70;1.42;;;;;;;;;;5046253;28;20455;-65
2021/04/16 12:44:42;;;;;;;2.72;1.40;;;;;;;;;;5045327;28;20040;-66
2021/04/16 12:47:13;;;;;;;2.65;1.15;;;;;;;;;;5045490;28;20056;-65
2021/04/16 12:49:38;;;;;;;1.88;1.05;;;;;;;;;;5045114;28;20714;-65
2021/04/16 12:52:05;;;;;;;3.42;1.70;;;;;;;;;;5043436;28;20036;-65
2021/04/16 12:54:37;;;;;;;3.92;1.70;;;;;;;;;;5045325;28;20025;-66
2021/04/16 12:57:02;;;;;;;5.57;1.40;;;;;;;;;;5045497;28;20029;-66
2021/04/16 12:59:28;;;;;;;2.47;1.30;;;;;;;;;;5045018;28;20048;-65
2021/04/16 13:01:53;;;;;;;7.63;1.80;;;;;;;;;;5043774;28;20032;-66
2021/04/16 13:04:20;;;;;;;3.55;1.58;;;;;;;;;;5045444;28;20044;-65
2021/04/16 13:06:46;;;;;;;3.13;1.45;;;;;;;;;;5044835;28;20045;-65
2021/04/16 13:09:12;;;;;;;3.58;1.20;;;;;;;;;;5045108;28;20023;-65
2021/04/16 13:11:38;;;;;;;4.93;1.60;;;;;;;;;;5045063;28;20075;-65
2021/04/16 13:14:03;;;;;;;2.80;1.10;;;;;;;;;;5044898;28;20399;-65
2021/04/16 13:16:29;;;;;;;3.75;1.10;;;;;;;;;;5046137;28;20020;-66
2021/04/16 13:18:55;;;;;;;3.20;1.45;;;;;;;;;;5045240;28;20079;-65
2021/04/16 13:21:21;;;;;;;1.83;0.95;;;;;;;;;;5043048;28;20090;-66
2021/04/16 13:23:47;;;;;;;4.75;1.33;;;;;;;;;;5044772;28;20017;-65
2021/04/16 13:26:12;;;;;;;3.13;1.42;;;;;;;;;;5045028;28;20045;-66
2021/04/16 13:28:37;;;;;;;3.53;1.23;;;;;;;;;;5045301;28;20036;-66
2021/04/16 13:31:03;;;;;;;8.23;1.35;;;;;;;;;;5044538;28;20425;-65
2021/04/16 13:33:32;;;;;;;2.85;1.50;;;;;;;;;;5044744;28;20112;-65
2021/04/16 13:35:57;;;;;;;7.85;1.50;;;;;;;;;;5044554;28;20036;-66
2021/04/16 13:38:27;;;;;;;2.00;1.05;;;;;;;;;;5044313;28;20096;-65
2021/04/16 13:40:53;;;;;;;2.88;1.10;;;;;;;;;;5044072;28;20055;-65
2021/04/16 13:43:19;;;;;;;2.08;1.00;;;;;;;;;;5044342;28;20373;-65
2021/04/16 13:45:44;;;;;;;1.83;1.00;;;;;;;;;;5045320;28;20029;-65
2021/04/16 13:48:11;;;;;;;2.38;1.20;;;;;;;;;;5044564;28;20044;-65
2021/04/16 13:50:37;;;;;;;3.60;1.00;;;;;;;;;;5044264;28;20028;-66
2021/04/16 13:53:02;;;;;;;2.72;1.20;;;;;;;;;;5043887;28;20028;-65
2021/04/16 13:55:28;;;;;;;2.13;1.27;;;;;;;;;;5044178;28;20044;-66
2021/04/16 13:57:53;;;;;;;5.78;1.42;;;;;;;;;;5044563;28;20448;-66
2021/04/16 14:00:20;;;;;;;3.63;1.35;;;;;;;;;;5044726;28;20468;-65
2021/04/16 14:02:49;;;;;;;2.50;1.48;;;;;;;;;;5044212;28;20476;-65
2021/04/16 14:05:16;;;;;;;3.78;1.63;;;;;;;;;;5046276;28;20064;-65
2021/04/16 14:07:42;;;;;;;3.95;1.30;;;;;;;;;;5048104;28;20553;-65
2021/04/16 14:10:08;;;;;;;5.40;1.25;;;;;;;;;;5048431;28;20388;-66
2021/04/16 14:12:34;;;;;;;3.78;1.27;;;;;;;;;;5048366;28;20033;-66
2021/04/16 14:15:00;;;;;;;4.10;2.08;;;;;;;;;;5048096;28;20025;-65
2021/04/16 14:17:28;;;;;;;5.10;2.17;;;;;;;;;;5048387;28;20654;-65
2021/04/16 14:20:02;;;;;;;5.03;1.50;;;;;;;;;;5047395;28;20029;-66
2021/04/16 14:22:36;;;;;;;4.95;1.88;;;;;;;;;;5047659;28;20040;-65
2021/04/16 14:25:01;;;;;;;3.85;1.52;;;;;;;;;;5047431;28;20075;-66
2021/04/16 14:27:26;;;;;;;3.05;1.30;;;;;;;;;;5047672;28;20037;-66
2021/04/16 14:29:52;;;;;;;2.70;1.30;;;;;;;;;;5048376;28;20025;-65
2021/04/16 14:32:19;;;;;;;3.13;1.40;;;;;;;;;;5046931;28;20064;-65
2021/04/16 14:34:45;;;;;;;3.67;1.38;;;;;;;;;;5047815;28;20166;-66
2021/04/16 14:37:10;;;;;;;2.90;1.42;;;;;;;;;;5042517;28;20033;-66
2021/04/16 14:39:35;;;;;;;3.00;1.40;;;;;;;;;;5048353;28;20460;-66
2021/04/16 14:42:01;;;;;;;2.03;1.30;;;;;;;;;;5048161;28;20047;-66
2021/04/16 14:44:27;;;;;;;5.03;1.65;;;;;;;;;;5047867;28;20532;-66
2021/04/16 14:46:53;;;;;;;4.65;1.60;;;;;;;;;;5046610;28;20548;-65
2021/04/16 14:49:20;;;;;;;2.88;1.40;;;;;;;;;;5047748;28;20049;-65
2021/04/16 14:51:46;;;;;;;4.55;1.67;;;;;;;;;;5047572;28;20543;-65
2021/04/16 14:54:24;;;;;;;5.88;1.70;;;;;;;;;;5047500;28;20029;-66
2021/04/16 14:56:50;;;;;;;5.25;1.55;;;;;;;;;;5047655;28;20651;-65
2021/04/16 14:59:22;;;;;;;3.30;1.80;;;;;;;;;;5046521;28;20120;-66
2021/04/16 15:01:50;;;;;;;2.80;1.40;;;;;;;;;;5047216;28;20473;-66
2021/04/16 15:04:15;;;;;;;2.50;1.20;;;;;;;;;;5047252;28;20027;-65
2021/04/16 15:06:41;;;;;;;4.35;1.65;;;;;;;;;;5047164;28;20128;-66
2021/04/16 15:09:08;;;;;;;6.35;1.65;;;;;;;;;;5046964;28;20057;-65
2021/04/16 15:11:40;;;;;;;11.20;1.88;;;;;;;;;;5047388;28;20412;-65
2021/04/16 15:14:07;;;;;;;2.50;1.60;;;;;;;;;;5047463;28;20033;-66
2021/04/16 15:16:35;;;;;;;5.18;1.90;;;;;;;;;;5046780;28;20020;-65
2021/04/16 15:19:00;;;;;;;3.75;1.60;;;;;;;;;;5046062;28;20033;-65
2021/04/16 15:21:26;;;;;;;6.45;1.70;;;;;;;;;;5047328;28;20469;-65
2021/04/16 15:23:52;;;;;;;2.50;1.27;;;;;;;;;;5046113;28;20052;-65
2021/04/16 15:26:18;;;;;;;2.75;1.40;;;;;;;;;;5046830;28;20099;-65
2021/04/16 15:28:46;;;;;;;3.05;1.50;;;;;;;;;;5046875;28;20516;-65
2021/04/16 15:31:15;;;;;;;2.70;1.23;;;;;;;;;;5046836;28;20025;-67
2021/04/16 15:47:48;;;;;;;3.40;1.60;;;;;;;;;;5033238;28;20489;-66
2021/04/16 15:50:15;;;;;;;2.42;1.40;;;;;;;;;;5046909;28;20053;-65
2021/04/16 15:52:41;;;;;;;3.72;1.55;;;;;;;;;;5046061;28;20104;-65
2021/04/16 15:55:07;;;;;;;3.67;1.15;;;;;;;;;;5045802;28;20032;-65
2021/04/16 15:57:34;;;;;;;6.63;1.77;;;;;;;;;;5046499;28;20021;-65
2021/04/16 16:00:00;;;;;;;3.47;1.33;;;;;;;;;;5046596;28;20078;-66
2021/04/16 16:02:27;;;;;;;2.85;1.60;;;;;;;;;;5045753;28;20440;-65
2021/04/16 16:04:52;;;;;;;3.40;1.40;;;;;;;;;;5046807;28;20035;-65
2021/04/16 16:07:18;;;;;;;2.92;1.25;;;;;;;;;;5045973;28;20053;-65
2021/04/16 16:09:43;;;;;;;4.75;1.65;;;;;;;;;;5046237;28;20021;-66
2021/04/16 16:12:15;;;;;;;2.95;1.25;;;;;;;;;;5045947;28;20021;-66
2021/04/16 16:14:49;;;;;;;4.40;1.15;;;;;;;;;;5046628;28;20039;-65
2021/04/16 16:17:16;;;;;;;3.90;1.30;;;;;;;;;;5043000;28;20053;-65
2021/04/16 16:19:42;;;;;;;2.38;1.20;;;;;;;;;;5046675;28;20094;-65
2021/04/16 16:22:07;;;;;;;4.25;1.58;;;;;;;;;;5046135;28;20458;-65
2021/04/16 16:24:33;;;;;;;5.13;1.45;;;;;;;;;;5046001;28;20036;-66
2021/04/16 16:26:58;;;;;;;4.25;1.30;;;;;;;;;;5044457;28;20392;-65
2021/04/16 16:29:25;;;;;;;4.85;1.50;;;;;;;;;;5045581;28;20429;-65
2021/04/16 16:31:51;;;;;;;2.67;1.33;;;;;;;;;;5045692;28;20480;-65
2021/04/16 16:34:18;;;;;;;2.28;1.20;;;;;;;;;;5045284;28;20425;-65
2021/04/16 16:36:44;;;;;;;3.53;1.40;;;;;;;;;;5045619;28;20063;-66
2021/04/16 16:39:09;;;;;;;4.43;1.10;;;;;;;;;;5043761;28;20052;-66
2021/04/16 16:41:35;;;;;;;5.38;1.88;;;;;;;;;;5045716;28;20139;-65
2021/04/16 16:44:01;;;;;;;3.38;1.50;;;;;;;;;;5045234;28;20131;-65
2021/04/16 16:46:37;;;;;;;3.70;1.42;;;;;;;;;;5045761;28;20084;-65
2021/04/16 16:49:02;;;;;;;4.47;1.50;;;;;;;;;;5045104;28;20033;-65
2021/04/16 16:51:30;;;;;;;4.18;1.58;;;;;;;;;;5045797;28;20028;-66
2021/04/16 16:53:56;;;;;;;6.63;1.80;;;;;;;;;;5044852;28;20071;-65
2021/04/16 16:56:23;;;;;;;4.57;1.67;;;;;;;;;;5045002;28;20041;-66
2021/04/16 16:58:50;;;;;;;7.05;1.80;;;;;;;;;;5045493;28;20577;-65
2021/04/16 17:01:20;;;;;;;3.47;1.70;;;;;;;;;;5045524;28;20098;-65
2021/04/16 17:03:45;;;;;;;5.60;1.45;;;;;;;;;;5045328;28;20493;-65
2021/04/16 17:06:11;;;;;;;3.80;1.40;;;;;;;;;;5044580;28;20021;-65
2021/04/16 17:08:36;;;;;;;3.75;1.40;;;;;;;;;;5044542;28;20067;-66
2021/04/16 17:11:03;;;;;;;2.42;1.55;;;;;;;;;;5044519;28;20043;-65